sensor_id;sensor_type;location;lat;lon;timestamp;P1;durP1;ratioP1;P2;durP2;ratioP2
10412;SDS011;5252;42.602;23.386;2022-09-27T00:00:02;8.05;;;6.53;;
10412;SDS011;5252;42.602;23.386;2022-09-27T00:02:29;6.03;;;5.50;;
10412;SDS011;5252;42.602;23.386;2022-09-27T00:04:56;5.95;;;5.45;;
10412;SDS011;5252;42.602;23.386;2022-09-27T00:07:23;5.30;;;4.90;;
10412;SDS011;5252;42.602;23.386;2022-09-27T00:09:51;5.32;;;4.93;;
10412;SDS011;5252;42.602;23.386;2022-09-27T00:12:17;5.63;;;5.15;;
10412;SDS011;5252;42.602;23.386;2022-09-27T00:14:44;5.03;;;4.63;;
10412;SDS011;5252;42.602;23.386;2022-09-27T00:17:10;5.28;;;4.18;;
10412;SDS011;5252;42.602;23.386;2022-09-27T00:19:37;5.20;;;4.15;;
10412;SDS011;5252;42.602;23.386;2022-09-27T00:22:04;4.53;;;4.13;;
10412;SDS011;5252;42.602;23.386;2022-09-27T00:24:30;5.82;;;4.20;;
10412;SDS011;5252;42.602;23.386;2022-09-27T00:26:58;3.78;;;3.33;;
10412;SDS011;5252;42.602;23.386;2022-09-27T00:29:25;4.30;;;3.20;;
10412;SDS011;5252;42.602;23.386;2022-09-27T00:31:51;3.40;;;3.10;;
10412;SDS011;5252;42.602;23.386;2022-09-27T00:34:19;3.40;;;3.10;;
10412;SDS011;5252;42.602;23.386;2022-09-27T00:36:46;4.03;;;3.72;;
10412;SDS011;5252;42.602;23.386;2022-09-27T00:39:13;14.70;;;13.23;;
10412;SDS011;5252;42.602;23.386;2022-09-27T00:41:40;15.40;;;14.00;;
10412;SDS011;5252;42.602;23.386;2022-09-27T00:46:52;16.40;;;14.90;;
10412;SDS011;5252;42.602;23.386;2022-09-27T00:49:22;17.05;;;15.55;;
10412;SDS011;5252;42.602;23.386;2022-09-27T00:51:50;16.92;;;15.43;;
10412;SDS011;5252;42.602;23.386;2022-09-27T00:54:19;16.73;;;15.23;;
10412;SDS011;5252;42.602;23.386;2022-09-27T00:56:48;17.77;;;15.98;;
10412;SDS011;5252;42.602;23.386;2022-09-27T00:59:16;16.30;;;14.77;;
10412;SDS011;5252;42.602;23.386;2022-09-27T01:01:44;16.63;;;14.88;;
10412;SDS011;5252;42.602;23.386;2022-09-27T01:04:13;15.20;;;13.57;;
10412;SDS011;5252;42.602;23.386;2022-09-27T01:06:40;12.93;;;11.68;;
10412;SDS011;5252;42.602;23.386;2022-09-27T01:09:07;13.13;;;11.93;;
10412;SDS011;5252;42.602;23.386;2022-09-27T01:11:38;13.68;;;12.45;;
10412;SDS011;5252;42.602;23.386;2022-09-27T01:14:09;14.95;;;13.55;;
10412;SDS011;5252;42.602;23.386;2022-09-27T01:16:40;15.07;;;13.68;;
10412;SDS011;5252;42.602;23.386;2022-09-27T01:19:10;15.73;;;14.13;;
10412;SDS011;5252;42.602;23.386;2022-09-27T01:21:48;16.30;;;14.60;;
10412;SDS011;5252;42.602;23.386;2022-09-27T01:27:15;18.30;;;14.40;;
10412;SDS011;5252;42.602;23.386;2022-09-27T01:29:50;16.23;;;14.55;;
10412;SDS011;5252;42.602;23.386;2022-09-27T01:32:26;15.75;;;14.10;;
10412;SDS011;5252;42.602;23.386;2022-09-27T01:34:55;15.68;;;14.18;;
10412;SDS011;5252;42.602;23.386;2022-09-27T01:37:28;16.27;;;14.68;;
10412;SDS011;5252;42.602;23.386;2022-09-27T01:39:58;16.60;;;15.07;;
10412;SDS011;5252;42.602;23.386;2022-09-27T01:42:27;16.50;;;14.77;;
10412;SDS011;5252;42.602;23.386;2022-09-27T01:44:57;16.08;;;14.27;;
10412;SDS011;5252;42.602;23.386;2022-09-27T01:47:28;15.20;;;13.70;;
10412;SDS011;5252;42.602;23.386;2022-09-27T01:49:58;15.88;;;14.38;;
10412;SDS011;5252;42.602;23.386;2022-09-27T01:52:27;15.35;;;13.75;;
10412;SDS011;5252;42.602;23.386;2022-09-27T01:54:57;21.88;;;15.13;;
10412;SDS011;5252;42.602;23.386;2022-09-27T01:57:25;15.98;;;14.43;;
10412;SDS011;5252;42.602;23.386;2022-09-27T01:59:54;15.57;;;14.13;;
10412;SDS011;5252;42.602;23.386;2022-09-27T02:02:22;15.32;;;13.90;;
10412;SDS011;5252;42.602;23.386;2022-09-27T02:04:51;15.75;;;14.15;;
10412;SDS011;5252;42.602;23.386;2022-09-27T02:07:22;16.85;;;15.23;;
10412;SDS011;5252;42.602;23.386;2022-09-27T02:09:51;16.30;;;14.60;;
10412;SDS011;5252;42.602;23.386;2022-09-27T02:12:20;16.15;;;14.55;;
10412;SDS011;5252;42.602;23.386;2022-09-27T02:14:48;16.20;;;14.60;;
10412;SDS011;5252;42.602;23.386;2022-09-27T02:17:20;16.40;;;14.80;;
10412;SDS011;5252;42.602;23.386;2022-09-27T02:19:50;16.15;;;14.63;;
10412;SDS011;5252;42.602;23.386;2022-09-27T02:22:20;16.58;;;14.95;;
10412;SDS011;5252;42.602;23.386;2022-09-27T02:24:52;16.83;;;14.98;;
10412;SDS011;5252;42.602;23.386;2022-09-27T02:27:20;16.48;;;14.88;;
10412;SDS011;5252;42.602;23.386;2022-09-27T02:29:48;16.58;;;14.95;;
10412;SDS011;5252;42.602;23.386;2022-09-27T02:32:18;17.27;;;15.40;;
10412;SDS011;5252;42.602;23.386;2022-09-27T02:34:45;16.33;;;14.63;;
10412;SDS011;5252;42.602;23.386;2022-09-27T02:37:12;17.45;;;15.75;;
10412;SDS011;5252;42.602;23.386;2022-09-27T02:39:40;17.55;;;15.85;;
10412;SDS011;5252;42.602;23.386;2022-09-27T02:42:07;17.83;;;16.10;;
10412;SDS011;5252;42.602;23.386;2022-09-27T02:44:34;14.95;;;13.55;;
10412;SDS011;5252;42.602;23.386;2022-09-27T02:47:11;13.80;;;12.50;;
10412;SDS011;5252;42.602;23.386;2022-09-27T02:49:43;12.93;;;11.70;;
10412;SDS011;5252;42.602;23.386;2022-09-27T02:52:14;12.77;;;11.48;;
10412;SDS011;5252;42.602;23.386;2022-09-27T02:54:46;12.82;;;11.73;;
10412;SDS011;5252;42.602;23.386;2022-09-27T02:57:19;12.50;;;11.20;;
10412;SDS011;5252;42.602;23.386;2022-09-27T02:59:49;12.35;;;11.23;;
10412;SDS011;5252;42.602;23.386;2022-09-27T03:02:18;12.23;;;11.07;;
10412;SDS011;5252;42.602;23.386;2022-09-27T03:04:49;12.27;;;10.93;;
10412;SDS011;5252;42.602;23.386;2022-09-27T03:07:19;12.48;;;11.20;;
10412;SDS011;5252;42.602;23.386;2022-09-27T03:09:48;12.32;;;11.05;;
10412;SDS011;5252;42.602;23.386;2022-09-27T03:12:15;11.77;;;10.68;;
10412;SDS011;5252;42.602;23.386;2022-09-27T03:14:50;12.35;;;11.15;;
10412;SDS011;5252;42.602;23.386;2022-09-27T03:17:16;12.40;;;11.30;;
10412;SDS011;5252;42.602;23.386;2022-09-27T03:19:43;11.13;;;10.13;;
10412;SDS011;5252;42.602;23.386;2022-09-27T03:22:09;12.75;;;10.32;;
10412;SDS011;5252;42.602;23.386;2022-09-27T03:24:36;11.48;;;10.48;;
10412;SDS011;5252;42.602;23.386;2022-09-27T03:27:04;11.63;;;10.63;;
10412;SDS011;5252;42.602;23.386;2022-09-27T03:29:31;11.23;;;10.13;;
10412;SDS011;5252;42.602;23.386;2022-09-27T03:31:57;10.48;;;9.52;;
10412;SDS011;5252;42.602;23.386;2022-09-27T03:34:24;10.32;;;9.43;;
10412;SDS011;5252;42.602;23.386;2022-09-27T03:36:50;10.77;;;9.13;;
10412;SDS011;5252;42.602;23.386;2022-09-27T03:39:17;8.73;;;8.02;;
10412;SDS011;5252;42.602;23.386;2022-09-27T03:41:44;9.82;;;8.93;;
10412;SDS011;5252;42.602;23.386;2022-09-27T03:44:12;11.15;;;10.25;;
10412;SDS011;5252;42.602;23.386;2022-09-27T03:46:39;11.75;;;10.65;;
10412;SDS011;5252;42.602;23.386;2022-09-27T03:49:06;12.95;;;11.68;;
10412;SDS011;5252;42.602;23.386;2022-09-27T03:51:32;13.63;;;12.43;;
10412;SDS011;5252;42.602;23.386;2022-09-27T03:53:59;13.57;;;12.30;;
10412;SDS011;5252;42.602;23.386;2022-09-27T03:56:25;15.43;;;13.95;;
10412;SDS011;5252;42.602;23.386;2022-09-27T03:58:52;14.80;;;13.45;;
10412;SDS011;5252;42.602;23.386;2022-09-27T04:01:20;13.20;;;12.00;;
10412;SDS011;5252;42.602;23.386;2022-09-27T04:03:47;13.43;;;12.20;;
10412;SDS011;5252;42.602;23.386;2022-09-27T04:06:14;14.45;;;13.07;;
10412;SDS011;5252;42.602;23.386;2022-09-27T04:08:42;14.30;;;13.00;;
10412;SDS011;5252;42.602;23.386;2022-09-27T04:11:08;14.18;;;12.80;;
10412;SDS011;5252;42.602;23.386;2022-09-27T04:13:35;15.32;;;13.82;;
10412;SDS011;5252;42.602;23.386;2022-09-27T04:16:02;15.18;;;13.55;;
10412;SDS011;5252;42.602;23.386;2022-09-27T04:18:30;16.42;;;14.77;;
10412;SDS011;5252;42.602;23.386;2022-09-27T04:20:56;16.90;;;15.23;;
10412;SDS011;5252;42.602;23.386;2022-09-27T04:23:23;15.88;;;14.20;;
10412;SDS011;5252;42.602;23.386;2022-09-27T04:25:50;16.90;;;15.20;;
10412;SDS011;5252;42.602;23.386;2022-09-27T04:28:16;15.77;;;14.23;;
10412;SDS011;5252;42.602;23.386;2022-09-27T04:30:44;15.38;;;13.95;;
10412;SDS011;5252;42.602;23.386;2022-09-27T04:33:10;16.30;;;14.75;;
10412;SDS011;5252;42.602;23.386;2022-09-27T04:35:38;17.60;;;15.45;;
10412;SDS011;5252;42.602;23.386;2022-09-27T04:38:22;19.70;;;17.60;;
10412;SDS011;5252;42.602;23.386;2022-09-27T04:40:49;20.85;;;18.67;;
10412;SDS011;5252;42.602;23.386;2022-09-27T04:43:15;21.83;;;19.42;;
10412;SDS011;5252;42.602;23.386;2022-09-27T04:45:42;21.48;;;18.67;;
10412;SDS011;5252;42.602;23.386;2022-09-27T04:48:09;26.83;;;21.60;;
10412;SDS011;5252;42.602;23.386;2022-09-27T04:50:36;21.33;;;19.13;;
10412;SDS011;5252;42.602;23.386;2022-09-27T04:53:05;20.42;;;18.33;;
10412;SDS011;5252;42.602;23.386;2022-09-27T04:55:32;20.55;;;18.42;;
10412;SDS011;5252;42.602;23.386;2022-09-27T04:57:59;21.13;;;18.92;;
10412;SDS011;5252;42.602;23.386;2022-09-27T05:00:26;20.80;;;18.70;;
10412;SDS011;5252;42.602;23.386;2022-09-27T05:02:53;22.23;;;20.00;;
10412;SDS011;5252;42.602;23.386;2022-09-27T05:05:19;24.55;;;21.98;;
10412;SDS011;5252;42.602;23.386;2022-09-27T05:07:46;23.27;;;20.88;;
10412;SDS011;5252;42.602;23.386;2022-09-27T05:10:14;22.63;;;20.33;;
10412;SDS011;5252;42.602;23.386;2022-09-27T05:12:41;22.55;;;20.25;;
10412;SDS011;5252;42.602;23.386;2022-09-27T05:15:08;22.98;;;20.60;;
10412;SDS011;5252;42.602;23.386;2022-09-27T05:17:35;24.35;;;20.55;;
10412;SDS011;5252;42.602;23.386;2022-09-27T05:20:03;24.70;;;20.70;;
10412;SDS011;5252;42.602;23.386;2022-09-27T05:22:29;24.70;;;21.17;;
10412;SDS011;5252;42.602;23.386;2022-09-27T05:24:56;23.30;;;20.90;;
10412;SDS011;5252;42.602;23.386;2022-09-27T05:27:24;22.75;;;20.45;;
10412;SDS011;5252;42.602;23.386;2022-09-27T05:29:51;21.70;;;19.40;;
10412;SDS011;5252;42.602;23.386;2022-09-27T05:32:18;21.35;;;19.08;;
10412;SDS011;5252;42.602;23.386;2022-09-27T05:34:45;21.65;;;17.23;;
10412;SDS011;5252;42.602;23.386;2022-09-27T05:37:12;17.77;;;16.08;;
10412;SDS011;5252;42.602;23.386;2022-09-27T05:39:38;21.02;;;18.48;;
10412;SDS011;5252;42.602;23.386;2022-09-27T05:42:05;17.50;;;15.80;;
10412;SDS011;5252;42.602;23.386;2022-09-27T05:44:35;20.83;;;18.65;;
10412;SDS011;5252;42.602;23.386;2022-09-27T05:47:02;15.02;;;13.23;;
10412;SDS011;5252;42.602;23.386;2022-09-27T05:49:29;13.98;;;12.57;;
10412;SDS011;5252;42.602;23.386;2022-09-27T05:51:56;13.32;;;12.07;;
10412;SDS011;5252;42.602;23.386;2022-09-27T05:54:23;14.18;;;12.88;;
10412;SDS011;5252;42.602;23.386;2022-09-27T05:56:52;13.55;;;12.27;;
10412;SDS011;5252;42.602;23.386;2022-09-27T05:59:22;13.45;;;12.25;;
10412;SDS011;5252;42.602;23.386;2022-09-27T06:01:51;15.05;;;13.52;;
10412;SDS011;5252;42.602;23.386;2022-09-27T06:04:18;16.27;;;14.55;;
10412;SDS011;5252;42.602;23.386;2022-09-27T06:06:44;15.73;;;14.20;;
10412;SDS011;5252;42.602;23.386;2022-09-27T06:09:12;17.60;;;15.80;;
10412;SDS011;5252;42.602;23.386;2022-09-27T06:11:39;18.40;;;16.27;;
10412;SDS011;5252;42.602;23.386;2022-09-27T06:14:05;19.13;;;17.23;;
10412;SDS011;5252;42.602;23.386;2022-09-27T06:16:32;20.92;;;18.92;;
10412;SDS011;5252;42.602;23.386;2022-09-27T06:19:00;22.38;;;19.80;;
10412;SDS011;5252;42.602;23.386;2022-09-27T06:21:28;23.33;;;20.83;;
10412;SDS011;5252;42.602;23.386;2022-09-27T06:23:56;22.27;;;19.98;;
10412;SDS011;5252;42.602;23.386;2022-09-27T06:26:24;21.90;;;19.60;;
10412;SDS011;5252;42.602;23.386;2022-09-27T06:28:51;22.40;;;20.08;;
10412;SDS011;5252;42.602;23.386;2022-09-27T06:31:18;20.38;;;18.27;;
10412;SDS011;5252;42.602;23.386;2022-09-27T06:33:45;20.70;;;18.60;;
10412;SDS011;5252;42.602;23.386;2022-09-27T06:36:14;20.35;;;18.25;;
10412;SDS011;5252;42.602;23.386;2022-09-27T06:38:41;21.33;;;19.13;;
10412;SDS011;5252;42.602;23.386;2022-09-27T06:41:10;20.02;;;18.02;;
10412;SDS011;5252;42.602;23.386;2022-09-27T06:43:37;20.40;;;18.40;;
10412;SDS011;5252;42.602;23.386;2022-09-27T06:46:04;55.83;;;19.35;;
10412;SDS011;5252;42.602;23.386;2022-09-27T06:48:31;19.40;;;17.50;;
10412;SDS011;5252;42.602;23.386;2022-09-27T06:50:57;18.90;;;17.10;;
10412;SDS011;5252;42.602;23.386;2022-09-27T06:53:26;19.25;;;17.35;;
10412;SDS011;5252;42.602;23.386;2022-09-27T06:55:56;18.58;;;16.67;;
10412;SDS011;5252;42.602;23.386;2022-09-27T06:58:23;17.42;;;15.70;;
10412;SDS011;5252;42.602;23.386;2022-09-27T07:01:07;18.60;;;16.75;;
10412;SDS011;5252;42.602;23.386;2022-09-27T07:03:34;18.50;;;16.70;;
10412;SDS011;5252;42.602;23.386;2022-09-27T07:06:04;17.95;;;16.15;;
10412;SDS011;5252;42.602;23.386;2022-09-27T07:08:33;17.77;;;16.00;;
10412;SDS011;5252;42.602;23.386;2022-09-27T07:11:00;17.83;;;16.13;;
10412;SDS011;5252;42.602;23.386;2022-09-27T07:13:27;16.50;;;14.93;;
10412;SDS011;5252;42.602;23.386;2022-09-27T07:15:57;15.98;;;14.45;;
10412;SDS011;5252;42.602;23.386;2022-09-27T07:18:23;16.88;;;15.18;;
10412;SDS011;5252;42.602;23.386;2022-09-27T07:20:50;17.00;;;15.30;;
10412;SDS011;5252;42.602;23.386;2022-09-27T07:23:16;16.50;;;14.85;;
10412;SDS011;5252;42.602;23.386;2022-09-27T07:25:44;13.85;;;12.60;;
10412;SDS011;5252;42.602;23.386;2022-09-27T07:28:12;14.23;;;12.88;;
10412;SDS011;5252;42.602;23.386;2022-09-27T07:30:39;15.00;;;13.60;;
10412;SDS011;5252;42.602;23.386;2022-09-27T07:33:07;13.27;;;12.18;;
10412;SDS011;5252;42.602;23.386;2022-09-27T07:35:34;14.20;;;12.90;;
10412;SDS011;5252;42.602;23.386;2022-09-27T07:38:04;14.52;;;13.30;;
10412;SDS011;5252;42.602;23.386;2022-09-27T07:40:32;14.65;;;13.35;;
10412;SDS011;5252;42.602;23.386;2022-09-27T07:43:00;12.90;;;11.70;;
10412;SDS011;5252;42.602;23.386;2022-09-27T07:45:27;13.38;;;12.15;;
10412;SDS011;5252;42.602;23.386;2022-09-27T07:47:54;13.20;;;12.00;;
10412;SDS011;5252;42.602;23.386;2022-09-27T07:50:20;20.17;;;18.15;;
10412;SDS011;5252;42.602;23.386;2022-09-27T07:52:47;23.77;;;21.52;;
10412;SDS011;5252;42.602;23.386;2022-09-27T07:55:15;26.67;;;24.08;;
10412;SDS011;5252;42.602;23.386;2022-09-27T07:57:42;26.75;;;24.05;;
10412;SDS011;5252;42.602;23.386;2022-09-27T08:00:12;25.00;;;22.52;;
10412;SDS011;5252;42.602;23.386;2022-09-27T08:02:40;25.85;;;23.20;;
10412;SDS011;5252;42.602;23.386;2022-09-27T08:05:07;26.92;;;24.15;;
10412;SDS011;5252;42.602;23.386;2022-09-27T08:07:34;27.00;;;24.17;;
10412;SDS011;5252;42.602;23.386;2022-09-27T08:10:00;27.10;;;24.40;;
10412;SDS011;5252;42.602;23.386;2022-09-27T08:12:27;27.52;;;24.80;;
10412;SDS011;5252;42.602;23.386;2022-09-27T08:14:53;27.42;;;24.30;;
10412;SDS011;5252;42.602;23.386;2022-09-27T08:17:24;27.55;;;24.65;;
10412;SDS011;5252;42.602;23.386;2022-09-27T08:19:50;27.25;;;24.55;;
10412;SDS011;5252;42.602;23.386;2022-09-27T08:22:17;25.98;;;23.48;;
10412;SDS011;5252;42.602;23.386;2022-09-27T08:24:45;26.40;;;23.80;;
10412;SDS011;5252;42.602;23.386;2022-09-27T08:27:12;27.05;;;24.35;;
10412;SDS011;5252;42.602;23.386;2022-09-27T08:29:38;26.77;;;24.08;;
10412;SDS011;5252;42.602;23.386;2022-09-27T08:32:06;25.33;;;22.90;;
10412;SDS011;5252;42.602;23.386;2022-09-27T08:34:34;25.80;;;23.13;;
10412;SDS011;5252;42.602;23.386;2022-09-27T08:37:01;26.02;;;23.35;;
10412;SDS011;5252;42.602;23.386;2022-09-27T08:39:27;27.00;;;24.23;;
10412;SDS011;5252;42.602;23.386;2022-09-27T08:41:55;27.38;;;23.90;;
10412;SDS011;5252;42.602;23.386;2022-09-27T08:44:25;25.08;;;22.58;;
10412;SDS011;5252;42.602;23.386;2022-09-27T08:46:55;24.95;;;22.45;;
10412;SDS011;5252;42.602;23.386;2022-09-27T08:49:26;26.75;;;24.10;;
10412;SDS011;5252;42.602;23.386;2022-09-27T08:51:57;25.58;;;23.00;;
10412;SDS011;5252;42.602;23.386;2022-09-27T08:54:25;25.95;;;23.40;;
10412;SDS011;5252;42.602;23.386;2022-09-27T08:56:55;23.88;;;21.55;;
10412;SDS011;5252;42.602;23.386;2022-09-27T08:59:24;24.17;;;21.88;;
10412;SDS011;5252;42.602;23.386;2022-09-27T09:01:53;23.88;;;21.58;;
10412;SDS011;5252;42.602;23.386;2022-09-27T09:04:23;23.40;;;21.20;;
10412;SDS011;5252;42.602;23.386;2022-09-27T09:06:53;24.02;;;21.73;;
10412;SDS011;5252;42.602;23.386;2022-09-27T09:09:26;24.85;;;22.42;;
10412;SDS011;5252;42.602;23.386;2022-09-27T09:11:58;20.70;;;18.80;;
10412;SDS011;5252;42.602;23.386;2022-09-27T09:14:56;23.13;;;20.95;;
10412;SDS011;5252;42.602;23.386;2022-09-27T09:17:27;21.25;;;19.35;;
10412;SDS011;5252;42.602;23.386;2022-09-27T09:20:00;21.45;;;19.35;;
10412;SDS011;5252;42.602;23.386;2022-09-27T09:22:36;22.42;;;20.30;;
10412;SDS011;5252;42.602;23.386;2022-09-27T09:25:12;22.92;;;20.75;;
10412;SDS011;5252;42.602;23.386;2022-09-27T09:27:43;23.17;;;20.88;;
10412;SDS011;5252;42.602;23.386;2022-09-27T09:30:17;21.35;;;19.15;;
10412;SDS011;5252;42.602;23.386;2022-09-27T09:32:47;20.67;;;18.77;;
10412;SDS011;5252;42.602;23.386;2022-09-27T09:35:16;21.42;;;19.35;;
10412;SDS011;5252;42.602;23.386;2022-09-27T09:37:45;20.08;;;18.15;;
10412;SDS011;5252;42.602;23.386;2022-09-27T09:40:18;22.50;;;20.17;;
10412;SDS011;5252;42.602;23.386;2022-09-27T09:42:46;21.65;;;19.55;;
10412;SDS011;5252;42.602;23.386;2022-09-27T09:45:16;22.13;;;19.80;;
10412;SDS011;5252;42.602;23.386;2022-09-27T09:47:46;22.00;;;19.67;;
10412;SDS011;5252;42.602;23.386;2022-09-27T09:50:15;21.40;;;19.23;;
10412;SDS011;5252;42.602;23.386;2022-09-27T09:52:43;23.45;;;21.25;;
10412;SDS011;5252;42.602;23.386;2022-09-27T09:55:18;24.42;;;22.00;;
10412;SDS011;5252;42.602;23.386;2022-09-27T09:57:50;24.23;;;21.75;;
10412;SDS011;5252;42.602;23.386;2022-09-27T10:00:18;24.38;;;22.02;;
10412;SDS011;5252;42.602;23.386;2022-09-27T10:02:45;25.27;;;22.65;;
10412;SDS011;5252;42.602;23.386;2022-09-27T10:05:13;25.77;;;23.20;;
10412;SDS011;5252;42.602;23.386;2022-09-27T10:07:40;25.77;;;23.05;;
10412;SDS011;5252;42.602;23.386;2022-09-27T10:10:07;27.05;;;23.98;;
10412;SDS011;5252;42.602;23.386;2022-09-27T10:12:37;21.17;;;18.88;;
10412;SDS011;5252;42.602;23.386;2022-09-27T10:15:04;23.48;;;21.08;;
10412;SDS011;5252;42.602;23.386;2022-09-27T10:17:33;23.52;;;21.02;;
10412;SDS011;5252;42.602;23.386;2022-09-27T10:20:01;23.30;;;21.00;;
10412;SDS011;5252;42.602;23.386;2022-09-27T10:22:30;23.33;;;20.88;;
10412;SDS011;5252;42.602;23.386;2022-09-27T10:25:01;21.58;;;19.25;;
10412;SDS011;5252;42.602;23.386;2022-09-27T10:27:37;22.25;;;19.95;;
10412;SDS011;5252;42.602;23.386;2022-09-27T10:30:12;20.23;;;17.48;;
10412;SDS011;5252;42.602;23.386;2022-09-27T10:32:46;19.13;;;17.20;;
10412;SDS011;5252;42.602;23.386;2022-09-27T10:35:19;20.35;;;18.38;;
10412;SDS011;5252;42.602;23.386;2022-09-27T10:37:45;18.27;;;16.10;;
10412;SDS011;5252;42.602;23.386;2022-09-27T10:40:20;17.83;;;16.08;;
10412;SDS011;5252;42.602;23.386;2022-09-27T10:42:50;16.75;;;15.07;;
10412;SDS011;5252;42.602;23.386;2022-09-27T10:45:21;13.98;;;12.65;;
10412;SDS011;5252;42.602;23.386;2022-09-27T10:47:50;14.40;;;13.02;;
10412;SDS011;5252;42.602;23.386;2022-09-27T10:50:17;14.07;;;12.05;;
10412;SDS011;5252;42.602;23.386;2022-09-27T10:52:46;13.73;;;12.15;;
10412;SDS011;5252;42.602;23.386;2022-09-27T10:55:15;14.02;;;11.05;;
10412;SDS011;5252;42.602;23.386;2022-09-27T10:57:47;13.27;;;11.98;;
10412;SDS011;5252;42.602;23.386;2022-09-27T11:00:20;11.57;;;10.38;;
10412;SDS011;5252;42.602;23.386;2022-09-27T11:02:50;10.77;;;9.70;;
10412;SDS011;5252;42.602;23.386;2022-09-27T11:05:28;10.35;;;9.30;;
10412;SDS011;5252;42.602;23.386;2022-09-27T11:07:56;10.30;;;8.10;;
10412;SDS011;5252;42.602;23.386;2022-09-27T11:10:24;8.73;;;7.93;;
10412;SDS011;5252;42.602;23.386;2022-09-27T11:13:10;9.32;;;8.30;;
10412;SDS011;5252;42.602;23.386;2022-09-27T11:15:42;7.90;;;7.22;;
10412;SDS011;5252;42.602;23.386;2022-09-27T11:18:14;7.90;;;7.18;;
10412;SDS011;5252;42.602;23.386;2022-09-27T11:20:45;9.20;;;8.38;;
10412;SDS011;5252;42.602;23.386;2022-09-27T11:23:16;8.60;;;7.75;;
10412;SDS011;5252;42.602;23.386;2022-09-27T11:25:46;9.45;;;7.18;;
10412;SDS011;5252;42.602;23.386;2022-09-27T11:28:22;8.00;;;6.97;;
10412;SDS011;5252;42.602;23.386;2022-09-27T11:30:54;7.03;;;6.43;;
10412;SDS011;5252;42.602;23.386;2022-09-27T11:36:14;6.70;;;6.10;;
10412;SDS011;5252;42.602;23.386;2022-09-27T11:38:47;6.22;;;5.63;;
10412;SDS011;5252;42.602;23.386;2022-09-27T11:41:21;6.55;;;5.80;;
10412;SDS011;5252;42.602;23.386;2022-09-27T11:43:55;6.65;;;6.03;;
10412;SDS011;5252;42.602;23.386;2022-09-27T11:46:29;5.93;;;5.35;;
10412;SDS011;5252;42.602;23.386;2022-09-27T11:49:03;5.95;;;5.20;;
10412;SDS011;5252;42.602;23.386;2022-09-27T11:51:37;5.60;;;4.80;;
10412;SDS011;5252;42.602;23.386;2022-09-27T11:54:15;4.35;;;4.05;;
10412;SDS011;5252;42.602;23.386;2022-09-27T11:56:45;6.95;;;4.07;;
10412;SDS011;5252;42.602;23.386;2022-09-27T12:02:04;5.35;;;4.50;;
10412;SDS011;5252;42.602;23.386;2022-09-27T12:04:50;4.72;;;4.35;;
10412;SDS011;5252;42.602;23.386;2022-09-27T12:07:18;4.82;;;4.43;;
10412;SDS011;5252;42.602;23.386;2022-09-27T12:09:49;6.65;;;4.22;;
10412;SDS011;5252;42.602;23.386;2022-09-27T12:12:18;4.93;;;4.53;;
10412;SDS011;5252;42.602;23.386;2022-09-27T12:14:46;5.60;;;4.40;;
10412;SDS011;5252;42.602;23.386;2022-09-27T12:17:17;4.65;;;4.20;;
10412;SDS011;5252;42.602;23.386;2022-09-27T12:19:45;4.80;;;4.40;;
10412;SDS011;5252;42.602;23.386;2022-09-27T12:22:15;7.75;;;4.50;;
10412;SDS011;5252;42.602;23.386;2022-09-27T12:24:44;3.70;;;3.40;;
10412;SDS011;5252;42.602;23.386;2022-09-27T12:27:12;6.75;;;4.10;;
10412;SDS011;5252;42.602;23.386;2022-09-27T12:29:40;4.85;;;3.90;;
10412;SDS011;5252;42.602;23.386;2022-09-27T12:32:10;4.63;;;4.20;;
10412;SDS011;5252;42.602;23.386;2022-09-27T12:34:42;5.20;;;4.35;;
10412;SDS011;5252;42.602;23.386;2022-09-27T12:37:10;5.32;;;4.82;;
10412;SDS011;5252;42.602;23.386;2022-09-27T12:39:40;5.80;;;4.90;;
10412;SDS011;5252;42.602;23.386;2022-09-27T12:42:12;5.50;;;4.45;;
10412;SDS011;5252;42.602;23.386;2022-09-27T12:44:39;5.75;;;4.20;;
10412;SDS011;5252;42.602;23.386;2022-09-27T12:47:07;4.35;;;3.85;;
10412;SDS011;5252;42.602;23.386;2022-09-27T12:49:39;6.32;;;3.80;;
10412;SDS011;5252;42.602;23.386;2022-09-27T12:52:10;4.05;;;3.75;;
10412;SDS011;5252;42.602;23.386;2022-09-27T12:54:48;4.65;;;4.05;;
10412;SDS011;5252;42.602;23.386;2022-09-27T12:57:21;4.80;;;4.30;;
10412;SDS011;5252;42.602;23.386;2022-09-27T12:59:53;5.75;;;4.07;;
10412;SDS011;5252;42.602;23.386;2022-09-27T13:02:45;4.70;;;4.30;;
10412;SDS011;5252;42.602;23.386;2022-09-27T13:05:25;4.20;;;3.80;;
10412;SDS011;5252;42.602;23.386;2022-09-27T13:08:01;5.68;;;4.30;;
10412;SDS011;5252;42.602;23.386;2022-09-27T13:10:39;6.88;;;3.83;;
10412;SDS011;5252;42.602;23.386;2022-09-27T13:13:12;5.22;;;3.90;;
10412;SDS011;5252;42.602;23.386;2022-09-27T13:15:41;4.85;;;3.90;;
10412;SDS011;5252;42.602;23.386;2022-09-27T13:18:27;3.97;;;3.60;;
10412;SDS011;5252;42.602;23.386;2022-09-27T13:20:54;3.17;;;2.60;;
10412;SDS011;5252;42.602;23.386;2022-09-27T13:26:21;1.50;;;1.40;;
10412;SDS011;5252;42.602;23.386;2022-09-27T13:28:57;2.03;;;1.50;;
10412;SDS011;5252;42.602;23.386;2022-09-27T13:39:43;1.83;;;1.20;;
10412;SDS011;5252;42.602;23.386;2022-09-27T13:42:14;1.63;;;1.00;;
10412;SDS011;5252;42.602;23.386;2022-09-27T13:44:44;1.75;;;1.25;;
10412;SDS011;5252;42.602;23.386;2022-09-27T13:47:25;1.10;;;0.90;;
10412;SDS011;5252;42.602;23.386;2022-09-27T13:49:56;1.35;;;1.10;;
10412;SDS011;5252;42.602;23.386;2022-09-27T13:52:25;1.10;;;1.00;;
10412;SDS011;5252;42.602;23.386;2022-09-27T13:54:53;1.10;;;1.00;;
10412;SDS011;5252;42.602;23.386;2022-09-27T14:00:16;1.10;;;0.93;;
10412;SDS011;5252;42.602;23.386;2022-09-27T14:02:52;1.83;;;1.08;;
10412;SDS011;5252;42.602;23.386;2022-09-27T14:05:20;1.35;;;0.90;;
10412;SDS011;5252;42.602;23.386;2022-09-27T14:07:48;1.55;;;0.82;;
10412;SDS011;5252;42.602;23.386;2022-09-27T14:10:16;1.02;;;0.90;;
10412;SDS011;5252;42.602;23.386;2022-09-27T14:12:44;3.20;;;1.00;;
10412;SDS011;5252;42.602;23.386;2022-09-27T14:15:15;2.85;;;0.80;;
10412;SDS011;5252;42.602;23.386;2022-09-27T14:17:44;1.00;;;0.90;;
10412;SDS011;5252;42.602;23.386;2022-09-27T14:22:53;1.20;;;0.80;;
10412;SDS011;5252;42.602;23.386;2022-09-27T14:25:19;0.90;;;0.90;;
10412;SDS011;5252;42.602;23.386;2022-09-27T14:27:46;2.05;;;1.27;;
10412;SDS011;5252;42.602;23.386;2022-09-27T14:30:13;1.35;;;1.00;;
10412;SDS011;5252;42.602;23.386;2022-09-27T14:32:46;1.58;;;1.00;;
10412;SDS011;5252;42.602;23.386;2022-09-27T14:35:14;2.35;;;0.90;;
10412;SDS011;5252;42.602;23.386;2022-09-27T14:37:58;1.77;;;0.90;;
10412;SDS011;5252;42.602;23.386;2022-09-27T14:40:25;1.75;;;0.90;;
10412;SDS011;5252;42.602;23.386;2022-09-27T14:42:53;1.10;;;0.98;;
10412;SDS011;5252;42.602;23.386;2022-09-27T14:45:21;1.38;;;0.82;;
10412;SDS011;5252;42.602;23.386;2022-09-27T14:47:49;1.10;;;0.98;;
10412;SDS011;5252;42.602;23.386;2022-09-27T14:50:17;1.80;;;1.10;;
10412;SDS011;5252;42.602;23.386;2022-09-27T14:52:44;1.55;;;1.10;;
10412;SDS011;5252;42.602;23.386;2022-09-27T14:55:14;1.05;;;0.95;;
10412;SDS011;5252;42.602;23.386;2022-09-27T14:57:44;1.65;;;1.02;;
10412;SDS011;5252;42.602;23.386;2022-09-27T15:00:15;2.28;;;1.20;;
10412;SDS011;5252;42.602;23.386;2022-09-27T15:02:42;1.67;;;1.27;;
10412;SDS011;5252;42.602;23.386;2022-09-27T15:05:13;2.80;;;2.28;;
10412;SDS011;5252;42.602;23.386;2022-09-27T15:07:41;4.03;;;3.10;;